• Join FlightAware (Why Join?)
  • Login
  • US Flag 
01:56PM EDT


 

Airport Tracker/Info


-or-


 

Live Flight TrackerFlight Track Log ✈ AAL1520 ✈ 04-May-2013 ✈ KMIA - KDCA

Flight Track Log - Related Links

Times and Time Zones

All times are in EDT time to prevent confusion due to time zone crossing. See the AAL1520 flight status page for this flight to view local times or setup timezone preferences in your user account.

Time Position Orientation Groundspeed Altitude Reporting Facility
EDT Latitude Longitude Course Direction KTS MPH feet Rate Location/Type
07:34PM 25.7994 -80.3136 336° Northwest 165 190 1,000  Level Miami Center
07:34PM 25.8008 -80.3322 275° West 163 188 2,000 1,620 Climbing Miami Center
07:35PM 25.8164 -80.3858 288° West 237 273 3,200 1,740 Climbing Miami Center
07:36PM 26.1045 -80.3851 340° North  Level FlightAware Approximate
07:36PM 25.8489 -80.4283 310° West 253 291 4,800  Level Miami Center
07:36PM 25.8739 -80.4289 359° North 268 308 5,900 2,700 Climbing Miami Center
07:37PM 26.2119 -80.4167 North  Level FlightAware Approximate
07:37PM 25.9178 -80.4211 North 295 339 7,500  Level Miami Center
07:38PM 26.3149 -80.4658 336° Northwest  Level FlightAware Approximate
07:38PM 25.9972 -80.4233 359° North 290 334 10,400  Level Miami Center
07:39PM 26.4174 -80.5170 336° Northwest  Level FlightAware Approximate
07:39PM 26.0911 -80.4261 358° North 304 350 12,100  Level Miami Center
07:40PM 26.1936 -80.4269 360° North 334 384 15,000 2,880 Climbing Miami Center
07:41PM 26.2806 -80.4550 344° North 357 411 17,900 3,000 Climbing Miami Center
07:42PM 26.3878 -80.5069 337° Northwest 380 437 21,000 2,400 Climbing Miami Center
07:43PM 26.4847 -80.5519 337° Northwest 401 461 22,700 1,860 Climbing Miami Center
07:44PM 26.6003 -80.6089 336° Northwest 409 471 24,800 1,920 Climbing Miami Center
07:45PM 26.6994 -80.6539 338° Northwest 422 486 26,600 1,800 Climbing Miami Center
07:46PM 26.8275 -80.7117 338° Northwest 434 499 28,400 2,100 Climbing Miami Center
07:47PM 26.9453 -80.7550 342° North 441 507 30,900 2,520 Climbing Miami Center
07:48PM 27.0589 -80.7961 342° North 441 507 33,500 2,280 Climbing Miami Center
07:49PM 27.1686 -80.8372 342° North 429 494 35,500 1,680 Climbing Miami Center
07:50PM 27.2761 -80.8758 342° North 415 478 36,900 1,200 Climbing Miami Center
07:51PM 27.3814 -80.9100 344° North 403 464 38,000 900 Climbing Miami Center
07:52PM 27.4911 -80.9467 343° North 398 458 38,700 420 Climbing Miami Center
07:53PM 27.6006 -80.9881 341° North 403 464 38,900 60 Climbing Miami Center
07:54PM 27.6997 -81.0244 342° North 416 479 38,900  Level Miami Center
07:55PM 27.8092 -81.0661 341° North 416 479 39,000  Climbing Miami Center
07:56PM 27.9164 -81.1075 341° North 416 479 39,000  Level Miami Center
07:57PM 28.0258 -81.1469 342° North 416 479 39,000  Level Miami Center
07:58PM 28.1456 -81.1914 342° North 411 473 39,000  Level Miami Center
07:59PM 28.2508 -81.2286 343° North 405 466 39,000  Level Miami Center
08:00PM 28.3622 -81.2683 343° North 405 466 39,000 -120 Level Miami Center
08:00PM 28.3944 -81.2833 338° Northwest 429 494 38,900  Descending Jacksonville Center
08:01PM 28.5033 -81.3242 342° North 440 506 39,000  Climbing Jacksonville Center
08:02PM 28.6186 -81.3436 352° North 426 490 38,900  Descending Jacksonville Center
08:03PM 28.7378 -81.3653 351° North 426 490 39,000  Climbing Jacksonville Center
08:04PM 28.8550 -81.3944 348° North 426 490 39,000 -60 Level Jacksonville Center
08:05PM 28.9700 -81.4258 347° North 426 490 38,900  Descending Jacksonville Center
08:06PM 29.0811 -81.4669 342° North 426 490 39,000  Climbing Jacksonville Center
08:07PM 29.1922 -81.5058 343° North 421 484 39,000  Level Jacksonville Center
08:08PM 29.3139 -81.5542 341° North 416 479 39,000  Level Jacksonville Center
08:09PM 29.4228 -81.5981 341° North 416 479 39,000  Level Jacksonville Center
08:10PM 29.5317 -81.6419 341° North 411 473 39,000  Level Jacksonville Center
08:11PM 29.6428 -81.6858 341° North 411 473 39,000  Level Jacksonville Center
08:12PM 29.7517 -81.7275 342° North 411 473 39,000  Level Jacksonville Center
08:13PM 29.8628 -81.7694 342° North 411 473 39,000  Level Jacksonville Center
08:14PM 29.9778 -81.7894 351° North 411 473 39,000  Level Jacksonville Center
08:15PM 30.0842 -81.7883 North 411 473 39,000 -60 Level Jacksonville Center
08:16PM 30.2072 -81.7725 North 423 487 38,900  Descending Jacksonville Center
08:17PM 30.3261 -81.7350 15° North 437 503 39,000  Climbing Jacksonville Center
08:18PM 30.4531 -81.6997 13° North 451 519 39,000  Level Jacksonville Center
08:19PM 30.5739 -81.6692 12° North 451 519 39,000  Level Jacksonville Center
08:20PM 30.6944 -81.6339 14° North 451 519 39,000  Level Jacksonville Center
08:21PM 30.8175 -81.5961 15° North 451 519 39,000  Level Jacksonville Center
08:22PM 30.9381 -81.5628 13° North 451 519 39,000  Level Jacksonville Center
08:23PM 31.0608 -81.5247 15° North 451 519 39,000  Level Jacksonville Center
08:24PM 31.1817 -81.4914 13° North 451 519 39,000  Level Jacksonville Center
08:25PM 31.3022 -81.4531 15° North 451 519 39,000  Level Jacksonville Center
08:26PM 31.4314 -81.4147 14° North 440 506 39,000  Level Jacksonville Center
08:27PM 31.5542 -81.3786 14° North 440 506 39,000  Level Jacksonville Center
08:28PM 31.6578 -81.3231 25° Northeast 446 513 39,000  Level Jacksonville Center
08:29PM 31.7758 -81.2331 33° Northeast 453 521 39,000  Level Jacksonville Center
08:30PM 31.8853 -81.1481 33° Northeast 467 537 39,000  Level Jacksonville Center
08:31PM 31.9947 -81.0603 34° Northeast 472 543 39,000  Level Jacksonville Center
08:32PM 32.1061 -80.9772 32° Northeast 467 537 39,000  Level Jacksonville Center
08:33PM 32.2053 -80.9039 32° Northeast 467 537 39,000  Level Jacksonville Center
08:34PM 32.3247 -80.8103 34° Northeast 473 544 39,000  Level Jacksonville Center
08:35PM 32.4197 -80.7367 33° Northeast 467 537 39,000  Level Jacksonville Center
08:36PM 32.5289 -80.6528 33° Northeast 467 537 39,000  Level Jacksonville Center
08:37PM 32.6358 -80.5689 33° Northeast 462 532 39,000 -60 Level Jacksonville Center
08:38PM 32.7406 -80.4847 34° Northeast 462 532 38,900  Descending Jacksonville Center
08:39PM 32.8517 -80.4000 33° Northeast 462 532 39,000  Climbing Jacksonville Center
08:40PM 32.9708 -80.3050 34° Northeast 473 544 39,000  Level Jacksonville Center
08:41PM 33.0797 -80.2200 33° Northeast 478 550 39,000  Level Jacksonville Center
08:42PM 33.1886 -80.1325 34° Northeast 474 545 39,000  Level Jacksonville Center
08:43PM 33.2972 -80.0472 33° Northeast 474 545 39,000  Level Jacksonville Center
08:44PM 33.4058 -79.9617 33° Northeast 469 540 39,000 -60 Level Jacksonville Center
08:45PM 33.5122 -79.8733 35° Northeast 469 540 38,900 -420 Descending Jacksonville Center
08:46PM 33.6189 -79.7900 33° Northeast 469 540 38,200 -840 Descending Jacksonville Center
08:47PM 33.7253 -79.7039 34° Northeast 464 534 37,300 -660 Descending Jacksonville Center
08:48PM 33.8314 -79.6175 34° Northeast 458 527 36,900 -180 Descending Jacksonville Center
08:49PM 33.9375 -79.5283 35° Northeast 458 527 37,000  Climbing Jacksonville Center
08:51PM 34.1500 -79.3583 33° Northeast 441 507 37,000  Level Washington Center
08:52PM 34.2356 -79.2894 34° Northeast 441 507 37,000  Level Washington Center
08:53PM 34.3592 -79.2094 28° Northeast 447 514 37,000  Level Washington Center
08:54PM 34.4694 -79.1489 24° Northeast 442 509 37,000  Level Washington Center
08:55PM 34.5819 -79.0831 26° Northeast 437 503 37,000  Level Washington Center
08:56PM 34.6903 -79.0197 26° Northeast 432 497 37,000  Level Washington Center
08:57PM 34.8006 -78.9558 25° Northeast 427 491 37,000  Level Washington Center
08:58PM 34.9131 -78.8897 26° Northeast 432 497 37,000  Level Washington Center
08:59PM 35.0253 -78.8258 25° Northeast 432 497 37,000  Level Washington Center
09:00PM 35.1378 -78.7592 26° Northeast 432 497 37,000  Level Washington Center
09:01PM 35.2500 -78.6925 26° Northeast 432 497 37,000  Level Washington Center
09:02PM 35.3667 -78.6231 26° Northeast 446 513 37,000  Level Washington Center
09:03PM 35.4894 -78.5511 26° Northeast 451 519 37,000  Level Washington Center
09:04PM 35.5953 -78.4886 26° Northeast 451 519 37,000 -240 Level Washington Center
09:05PM 35.7264 -78.4117 25° Northeast 458 527 36,600 -720 Descending Washington Center
09:06PM 35.8364 -78.3464 26° Northeast 452 520 35,600 -960 Descending Washington Center
09:07PM 35.9486 -78.2758 27° Northeast 452 520 34,700 -1,140 Descending Washington Center
09:08PM 36.0628 -78.2103 25° Northeast 452 520 33,400 -2,160 Descending Washington Center
09:09PM 36.1747 -78.1419 26° Northeast 452 520 30,400 -2,820 Descending Washington Center
09:10PM 36.2869 -78.0733 26° Northeast 452 520 27,800 -2,280 Descending Washington Center
09:11PM 36.3903 -78.0097 26° Northeast 436 502 26,000 -1,200 Descending Washington Center
09:12PM 36.4853 -77.9531 26° Northeast 423 487 25,500 -1,140 Descending Washington Center
09:13PM 36.5931 -77.8892 25° Northeast 417 480 23,800 -1,320 Descending Washington Center
09:14PM 36.6967 -77.8222 27° Northeast 412 474 22,900 -900 Descending Washington Center
09:15PM 36.7958 -77.7603 27° Northeast 412 474 22,100 -480 Descending Washington Center
09:16PM 36.8969 -77.6983 26° Northeast 407 468 22,000 -60 Descending Washington Center
09:17PM 36.9942 -77.6358 27° Northeast 401 461 22,000  Level Washington Center
09:18PM 37.0931 -77.5786 25° Northeast 395 455 22,000  Level Washington Center
09:19PM 37.1942 -77.5133 27° Northeast 395 455 22,000  Level Washington Center
09:20PM 37.2933 -77.4533 26° Northeast 395 455 22,000  Level Washington Center
09:21PM 37.3944 -77.3878 27° Northeast 389 448 22,000 -240 Level Washington Center
09:22PM 37.4953 -77.3272 25° Northeast 389 448 21,600 -1,380 Descending Washington Center
09:23PM 37.6000 -77.3008 11° North 384 442 19,300 -2,220 Descending Washington Center
09:24PM 37.7025 -77.2794 North 377 434 17,200 -2,220 Descending Washington Center
09:25PM 37.8031 -77.2608 North 372 428 14,900 -2,160 Descending Washington Center
09:26PM 37.8992 -77.2392 10° North 362 417 13,000 -1,380 Descending Washington Center
09:27PM 37.9953 -77.2203 North 352 405 12,300 -660 Descending Washington Center
09:28PM 38.0872 -77.2036 North 342 394 11,700 -720 Descending Washington Center
09:29PM 38.1794 -77.1819 10° North 342 394 10,900 -780 Descending Washington Center
09:30PM 38.2714 -77.1575 12° North 337 388 10,200 -480 Descending Washington Center
09:31PM 38.3633 -77.1461 North 332 382 10,000 -120 Descending Washington Center
09:32PM 38.4533 -77.1267 10° North 332 382 10,000  Level Washington Center
09:33PM 38.5536 -77.1050 10° North 332 382 10,000 -540 Level Washington Center
09:34PM 38.6331 -77.0881 North 313 360 9,000 -1,200 Descending Washington Center
09:35PM 38.6667 -77.0667 26° Northeast 281 323 8,300 -1,380 Descending Potomac TRACON
09:36PM 38.7500 -77.0667 360° North 275 316 7,000 -1,080 Descending Potomac TRACON
09:37PM 38.8167 -77.1000 339° North 261 300 6,200 -1,440 Descending Potomac TRACON
09:38PM 38.8667 -77.1500 322° Northwest 250 288 4,200 -1,560 Descending Potomac TRACON
09:39PM 38.9167 -77.2167 314° West 222 255 3,000 -1,140 Descending Potomac TRACON